createdAt,value
2022-09-07T00:00:16.525Z,19.61
2022-09-07T00:02:44.645Z,19.63
2022-09-07T00:05:13.766Z,19.68
2022-09-07T00:07:41.532Z,19.61
2022-09-07T00:10:10.211Z,19.68
2022-09-07T00:12:38.138Z,19.74
2022-09-07T00:15:09.471Z,19.72
2022-09-07T00:17:37.412Z,19.70
2022-09-07T00:20:07.506Z,19.70
2022-09-07T00:22:37.178Z,19.67
2022-09-07T00:25:06.240Z,19.66
2022-09-07T00:27:34.161Z,19.65
2022-09-07T00:30:01.933Z,19.58
2022-09-07T00:32:29.755Z,19.62
2022-09-07T00:34:57.645Z,19.58
2022-09-07T00:37:25.826Z,19.42
2022-09-07T00:39:55.096Z,19.59
2022-09-07T00:42:23.660Z,19.64
2022-09-07T00:45:11.353Z,19.69
2022-09-07T00:47:47.121Z,19.67
2022-09-07T00:50:20.236Z,19.74
2022-09-07T00:52:53.818Z,19.77
2022-09-07T00:55:23.853Z,19.83
2022-09-07T00:57:55.883Z,19.85
2022-09-07T01:00:23.688Z,19.81
2022-09-07T01:02:55.204Z,19.71
2022-09-07T01:05:27.316Z,19.80
2022-09-07T01:07:56.823Z,19.89
2022-09-07T01:10:31.587Z,19.86
2022-09-07T01:12:59.736Z,19.61
2022-09-07T01:15:41.098Z,19.87
2022-09-07T01:18:16.753Z,19.86
2022-09-07T01:20:56.590Z,20.02
2022-09-07T01:24:21.758Z,20.03
2022-09-07T01:27:33.496Z,20.02
2022-09-07T01:30:05.993Z,19.98
2022-09-07T01:32:48.322Z,19.95
2022-09-07T01:35:22.578Z,19.89
2022-09-07T01:37:57.864Z,19.86
2022-09-07T01:40:35.488Z,19.85
2022-09-07T01:43:10.244Z,19.78
2022-09-07T01:45:42.225Z,19.76
2022-09-07T01:48:15.792Z,19.83
2022-09-07T01:50:48.679Z,19.97
2022-09-07T01:53:22.254Z,20.02
2022-09-07T01:55:53.914Z,20.04
2022-09-07T01:58:28.962Z,20.21
2022-09-07T02:01:04.567Z,20.12
2022-09-07T02:03:38.386Z,20.00
2022-09-07T02:06:12.596Z,19.77
2022-09-07T02:08:45.875Z,19.54
2022-09-07T02:11:20.470Z,19.49
2022-09-07T02:13:56.064Z,19.38
2022-09-07T02:16:26.965Z,19.18
2022-09-07T02:18:57.839Z,18.98
2022-09-07T02:21:31.228Z,18.75
2022-09-07T02:24:05.303Z,18.54
2022-09-07T02:26:35.590Z,18.33
2022-09-07T02:29:05.066Z,17.99
2022-09-07T02:31:33.064Z,17.83
2022-09-07T02:34:01.968Z,17.62
2022-09-07T02:36:34.633Z,17.38
2022-09-07T02:39:02.472Z,17.37
2022-09-07T02:41:34.235Z,17.33
2022-09-07T02:44:05.728Z,17.17
2022-09-07T02:46:46.901Z,17.17
2022-09-07T02:49:30.949Z,17.16
2022-09-07T02:52:11.669Z,17.20
2022-09-07T02:54:52.900Z,17.16
2022-09-07T02:57:30.786Z,17.12
2022-09-07T03:00:08.529Z,17.09
2022-09-07T03:02:45.850Z,17.13
2022-09-07T03:05:20.371Z,17.07
2022-09-07T03:07:53.811Z,17.05
2022-09-07T03:10:23.029Z,17.04
2022-09-07T03:12:51.561Z,16.70
2022-09-07T03:15:23.332Z,17.02
2022-09-07T03:17:51.855Z,17.01
2022-09-07T03:20:20.800Z,17.00
2022-09-07T03:22:50.647Z,16.99
2022-09-07T03:25:19.133Z,16.95
2022-09-07T03:27:47.026Z,16.89
2022-09-07T03:30:15.674Z,16.96
2022-09-07T03:32:44.845Z,16.94
2022-09-07T03:35:14.460Z,16.98
2022-09-07T03:37:42.852Z,17.04
2022-09-07T03:40:13.029Z,17.02
2022-09-07T03:42:41.381Z,17.05
2022-09-07T03:45:11.050Z,17.08
2022-09-07T03:47:39.487Z,17.07
2022-09-07T03:50:09.537Z,16.64
2022-09-07T03:52:37.965Z,17.09
2022-09-07T03:55:06.591Z,17.06
2022-09-07T03:57:34.827Z,17.07
2022-09-07T04:00:03.315Z,17.13
2022-09-07T04:02:40.383Z,16.65
2022-09-07T04:05:10.155Z,17.06
2022-09-07T04:07:38.370Z,17.00
2022-09-07T04:10:06.735Z,16.81
2022-09-07T04:12:34.641Z,16.97
2022-09-07T04:15:02.486Z,16.89
2022-09-07T04:17:30.296Z,16.83
2022-09-07T04:19:58.146Z,16.83
2022-09-07T04:22:27.341Z,16.87
2022-09-07T04:24:55.152Z,16.88
2022-09-07T04:27:22.951Z,16.85
2022-09-07T04:29:50.808Z,16.85
2022-09-07T04:32:18.738Z,16.87
2022-09-07T04:34:46.590Z,16.85
2022-09-07T04:37:14.407Z,16.79
2022-09-07T04:39:43.605Z,16.82
2022-09-07T04:42:11.523Z,16.88
2022-09-07T04:44:39.304Z,16.81
2022-09-07T04:47:07.881Z,16.73
2022-09-07T04:49:35.851Z,16.68
2022-09-07T04:52:04.098Z,16.68
2022-09-07T04:54:32.013Z,16.67
2022-09-07T04:57:01.258Z,16.64
2022-09-07T04:59:29.135Z,16.74
2022-09-07T05:01:57.049Z,16.75
2022-09-07T05:04:24.892Z,16.67
2022-09-07T05:06:54.321Z,16.77
2022-09-07T05:09:22.190Z,16.81
2022-09-07T05:11:50.054Z,16.86
2022-09-07T05:14:19.363Z,16.88
2022-09-07T05:16:47.391Z,16.85
2022-09-07T05:19:15.934Z,16.71
2022-09-07T05:21:43.871Z,16.69
2022-09-07T05:24:11.676Z,16.65
2022-09-07T05:26:39.738Z,16.71
2022-09-07T05:31:57.969Z,16.67
2022-09-07T05:34:29.298Z,16.67
2022-09-07T05:36:57.748Z,16.66
2022-09-07T05:39:25.779Z,16.70
2022-09-07T05:41:53.949Z,16.83
2022-09-07T05:47:11.873Z,16.94
2022-09-07T05:49:39.855Z,16.94
2022-09-07T05:52:08.005Z,17.04
2022-09-07T05:54:36.008Z,16.84
2022-09-07T05:57:03.932Z,17.09
2022-09-07T05:59:31.964Z,16.81
2022-09-07T06:02:00.228Z,17.33
2022-09-07T06:04:29.573Z,17.43
2022-09-07T06:12:33.139Z,17.84
2022-09-07T06:15:01.481Z,17.82
2022-09-07T06:17:31.011Z,18.08
2022-09-07T06:20:00.241Z,18.08
2022-09-07T06:22:30.965Z,18.15
2022-09-07T06:24:59.377Z,18.22
2022-09-07T06:27:27.232Z,18.36
2022-09-07T06:29:55.332Z,18.44
2022-09-07T06:35:13.005Z,18.68
2022-09-07T06:37:40.906Z,18.82
2022-09-07T06:40:10.427Z,18.84
2022-09-07T06:42:38.910Z,19.04
2022-09-07T06:45:07.671Z,19.03
2022-09-07T06:47:35.747Z,19.21
2022-09-07T06:50:03.745Z,19.30
2022-09-07T06:55:20.717Z,19.65
2022-09-07T06:57:48.475Z,19.66
2022-09-07T07:00:16.898Z,19.74
2022-09-07T07:02:44.680Z,19.95
2022-09-07T07:05:12.506Z,20.06
2022-09-07T07:07:41.824Z,20.16
2022-09-07T07:10:10.264Z,20.37
2022-09-07T07:15:05.310Z,20.50
2022-09-07T07:17:33.199Z,20.51
2022-09-07T07:20:01.005Z,20.49
2022-09-07T07:22:46.275Z,20.45
2022-09-07T07:25:16.398Z,20.63
2022-09-07T07:27:45.841Z,20.78
2022-09-07T07:30:14.009Z,20.94
2022-09-07T07:32:42.246Z,21.21
2022-09-07T07:35:11.229Z,21.34
2022-09-07T07:37:39.586Z,21.60
2022-09-07T07:42:41.508Z,21.55
2022-09-07T07:47:58.410Z,21.92
2022-09-07T07:50:34.131Z,22.07
2022-09-07T07:55:53.348Z,22.31
2022-09-07T07:58:22.555Z,22.49
2022-09-07T08:00:54.665Z,22.78
2022-09-07T08:03:24.148Z,23.11
2022-09-07T08:05:52.349Z,22.83
2022-09-07T08:08:20.206Z,22.64
2022-09-07T08:10:48.183Z,22.96
2022-09-07T08:13:16.041Z,22.93
2022-09-07T08:15:46.470Z,23.11
2022-09-07T08:18:15.811Z,23.13
2022-09-07T08:20:44.070Z,22.94
2022-09-07T08:23:11.885Z,22.81
2022-09-07T08:25:39.989Z,23.08
2022-09-07T08:28:07.602Z,23.24
2022-09-07T08:30:35.219Z,23.24
2022-09-07T08:33:04.166Z,23.33
2022-09-07T08:35:31.812Z,23.38
2022-09-07T08:37:59.434Z,23.50
2022-09-07T08:40:28.141Z,23.44
2022-09-07T08:43:09.217Z,23.46
2022-09-07T08:45:42.267Z,23.47
2022-09-07T08:48:15.761Z,23.42
2022-09-07T08:50:53.956Z,23.38
2022-09-07T08:53:24.933Z,23.34
2022-09-07T08:55:56.972Z,23.36
2022-09-07T08:58:48.173Z,23.35
2022-09-07T09:01:34.053Z,23.68
2022-09-07T09:04:21.298Z,23.79
2022-09-07T09:07:03.525Z,24.06
2022-09-07T09:09:41.227Z,24.01
2022-09-07T09:12:20.995Z,24.23
2022-09-07T09:15:04.215Z,24.14
2022-09-07T09:17:36.539Z,24.28
2022-09-07T09:20:17.452Z,24.58
2022-09-07T09:22:45.841Z,24.87
2022-09-07T09:25:20.697Z,25.15
2022-09-07T09:27:49.318Z,25.10
2022-09-07T09:30:23.108Z,25.28
2022-09-07T09:32:52.950Z,25.35
2022-09-07T09:35:29.879Z,25.56
2022-09-07T09:37:58.130Z,25.86
2022-09-07T09:40:28.983Z,25.77
2022-09-07T09:43:02.118Z,25.93
2022-09-07T09:46:12.069Z,26.22
2022-09-07T09:48:22.047Z,26.48
2022-09-07T09:53:54.110Z,26.89
2022-09-07T09:56:22.768Z,26.73
2022-09-07T09:59:56.071Z,26.87
2022-09-07T10:04:33.777Z,26.92
2022-09-07T10:07:14.824Z,27.05
2022-09-07T10:09:49.649Z,26.58
2022-09-07T10:12:28.015Z,26.34
2022-09-07T10:14:56.534Z,26.06
2022-09-07T10:17:30.928Z,25.98
2022-09-07T10:20:03.452Z,25.81
2022-09-07T10:22:35.859Z,26.23
2022-09-07T10:25:06.076Z,26.92
2022-09-07T10:27:36.680Z,27.22
2022-09-07T10:30:12.789Z,26.86
2022-09-07T10:32:51.407Z,26.91
2022-09-07T10:35:25.144Z,27.16
2022-09-07T10:38:03.875Z,26.92
2022-09-07T10:40:35.654Z,27.03
2022-09-07T10:43:21.443Z,27.06
2022-09-07T10:49:24.828Z,27.30
2022-09-07T10:52:04.280Z,26.84
2022-09-07T10:54:43.493Z,27.26
2022-09-07T10:57:29.136Z,27.59
2022-09-07T11:00:11.077Z,27.66
2022-09-07T11:05:53.124Z,27.10
2022-09-07T11:09:15.485Z,27.43
2022-09-07T11:14:18.495Z,27.77
2022-09-07T11:16:53.264Z,27.42
2022-09-07T11:19:41.799Z,27.38
2022-09-07T11:22:20.608Z,27.66
2022-09-07T11:27:48.227Z,28.42
2022-09-07T11:30:22.227Z,28.77
2022-09-07T11:32:56.351Z,29.07
2022-09-07T11:35:35.045Z,29.44
2022-09-07T11:38:13.701Z,29.61
2022-09-07T11:40:49.705Z,29.34
2022-09-07T11:43:23.409Z,28.93
2022-09-07T11:45:55.353Z,29.12
2022-09-07T11:48:30.966Z,29.54
2022-09-07T11:51:03.345Z,29.54
2022-09-07T11:53:35.580Z,29.40
2022-09-07T11:56:07.323Z,29.53
2022-09-07T11:59:02.215Z,29.88
2022-09-07T12:01:40.837Z,30.09
2022-09-07T12:04:30.784Z,30.52
2022-09-07T12:07:16.610Z,30.45
2022-09-07T12:09:58.942Z,30.16
2022-09-07T12:12:43.669Z,30.04
2022-09-07T12:15:24.771Z,29.23
2022-09-07T12:18:07.516Z,29.94
2022-09-07T12:20:41.590Z,29.25
2022-09-07T12:23:23.007Z,28.73
2022-09-07T12:25:52.528Z,28.38
2022-09-07T12:28:53.659Z,28.07
2022-09-07T12:31:57.309Z,27.72
2022-09-07T12:35:00.837Z,27.33
2022-09-07T12:37:41.093Z,26.86
2022-09-07T12:40:57.745Z,26.46
2022-09-07T12:43:46.609Z,26.38
2022-09-07T12:46:50.011Z,26.58
2022-09-07T12:49:49.057Z,26.65
2022-09-07T12:52:41.963Z,26.71
2022-09-07T12:55:29.868Z,27.20
2022-09-07T12:58:08.600Z,28.08
2022-09-07T13:00:49.890Z,28.23
2022-09-07T13:09:31.752Z,27.56
2022-09-07T13:12:00.143Z,27.39
2022-09-07T13:14:29.805Z,27.48
2022-09-07T13:17:42.311Z,27.50
2022-09-07T13:20:30.030Z,27.30
2022-09-07T13:23:09.312Z,27.56
2022-09-07T13:25:49.181Z,28.61
2022-09-07T13:28:36.872Z,29.17
2022-09-07T13:31:34.872Z,29.54
2022-09-07T13:34:40.909Z,29.45
2022-09-07T13:37:17.398Z,29.28
2022-09-07T13:39:47.823Z,29.10
2022-09-07T13:42:18.304Z,29.30
2022-09-07T13:44:54.745Z,29.71
2022-09-07T13:47:34.556Z,29.75
2022-09-07T13:50:13.003Z,30.06
2022-09-07T13:53:15.115Z,30.09
2022-09-07T13:55:53.807Z,29.79
2022-09-07T13:58:27.407Z,29.31
2022-09-07T14:00:57.346Z,29.01
2022-09-07T14:03:26.832Z,29.42
2022-09-07T14:06:31.293Z,29.93
2022-09-07T14:09:03.461Z,29.67
2022-09-07T14:11:40.398Z,29.52
2022-09-07T14:14:16.260Z,29.28
2022-09-07T14:16:46.557Z,29.03
2022-09-07T14:19:19.539Z,28.69
2022-09-07T14:21:55.962Z,28.39
2022-09-07T14:24:31.046Z,28.33
2022-09-07T14:27:00.066Z,28.20
2022-09-07T14:29:31.111Z,28.05
2022-09-07T14:32:00.301Z,27.97
2022-09-07T14:34:32.995Z,27.89
2022-09-07T14:37:05.870Z,27.73
2022-09-07T14:39:40.134Z,27.65
2022-09-07T14:42:11.414Z,27.56
2022-09-07T14:44:42.879Z,27.41
2022-09-07T14:47:24.162Z,27.25
2022-09-07T14:49:53.080Z,27.19
2022-09-07T14:52:24.409Z,27.01
2022-09-07T14:54:54.236Z,26.85
2022-09-07T14:57:32.240Z,26.79
2022-09-07T15:00:19.565Z,26.79
2022-09-07T15:02:47.450Z,26.74
2022-09-07T15:05:27.571Z,26.64
2022-09-07T15:07:57.868Z,26.59
2022-09-07T15:10:35.208Z,26.57
2022-09-07T15:13:04.929Z,26.62
2022-09-07T15:15:35.013Z,26.63
2022-09-07T15:18:08.801Z,26.79
2022-09-07T15:20:43.072Z,26.94
2022-09-07T15:23:13.037Z,27.16
2022-09-07T15:25:45.393Z,27.50
2022-09-07T15:34:02.893Z,28.48
2022-09-07T15:36:32.051Z,28.48
2022-09-07T15:39:00.509Z,28.18
2022-09-07T15:41:30.102Z,27.82
2022-09-07T15:43:57.846Z,27.80
2022-09-07T15:46:25.581Z,27.54
2022-09-07T15:48:55.064Z,27.30
2022-09-07T15:54:13.727Z,26.97
2022-09-07T15:57:48.064Z,26.87
2022-09-07T15:59:32.140Z,26.85
2022-09-07T16:02:00.054Z,26.87
2022-09-07T16:04:27.865Z,26.93
2022-09-07T16:06:55.734Z,26.83
2022-09-07T16:09:23.380Z,26.75
2022-09-07T16:11:52.573Z,26.70
2022-09-07T16:14:20.392Z,26.59
2022-09-07T16:19:36.203Z,26.41
2022-09-07T16:22:04.184Z,26.24
2022-09-07T16:24:32.189Z,26.03
2022-09-07T16:27:01.583Z,25.87
2022-09-07T16:29:29.345Z,25.73
2022-09-07T16:34:44.963Z,25.62
2022-09-07T16:37:12.757Z,25.68
2022-09-07T16:39:40.379Z,25.70
2022-09-07T16:42:09.649Z,25.55
2022-09-07T16:44:37.274Z,25.42
2022-09-07T16:47:05.093Z,25.28
2022-09-07T16:49:32.720Z,25.14
2022-09-07T16:52:00.328Z,25.00
2022-09-07T16:54:28.126Z,24.89
2022-09-07T16:56:55.702Z,24.82
2022-09-07T16:59:26.715Z,24.77
2022-09-07T17:01:54.406Z,24.74
2022-09-07T17:04:22.241Z,24.72
2022-09-07T17:06:51.859Z,24.61
2022-09-07T17:09:20.477Z,24.46
2022-09-07T17:11:48.310Z,24.39
2022-09-07T17:14:16.509Z,24.32
2022-09-07T17:16:45.597Z,24.24
2022-09-07T17:19:31.665Z,23.64
2022-09-07T17:22:00.184Z,23.72
2022-09-07T17:24:32.391Z,23.73
2022-09-07T17:27:00.327Z,23.47
2022-09-07T17:29:30.339Z,23.30
2022-09-07T17:34:47.114Z,22.97
2022-09-07T17:37:14.740Z,22.84
2022-09-07T17:39:42.426Z,22.68
2022-09-07T17:42:10.063Z,22.53
2022-09-07T17:44:38.429Z,22.39
2022-09-07T17:47:07.781Z,22.31
2022-09-07T17:49:35.505Z,22.28
2022-09-07T17:52:03.693Z,22.20
2022-09-07T17:54:32.679Z,22.08
2022-09-07T17:57:00.327Z,21.97
2022-09-07T18:02:17.292Z,21.56
2022-09-07T18:04:45.019Z,21.71
2022-09-07T18:07:13.022Z,21.60
2022-09-07T18:09:40.697Z,21.55
2022-09-07T18:12:08.538Z,21.41
2022-09-07T18:14:36.184Z,21.25
2022-09-07T18:17:04.997Z,21.12
2022-09-07T18:19:34.040Z,20.97
2022-09-07T18:22:03.784Z,20.84
2022-09-07T18:24:31.500Z,20.84
2022-09-07T18:27:12.303Z,20.84
2022-09-07T18:29:40.144Z,20.77
2022-09-07T18:32:09.885Z,20.76
2022-09-07T18:34:41.350Z,20.76
2022-09-07T18:37:11.923Z,20.74
2022-09-07T18:39:40.912Z,20.73
2022-09-07T18:42:09.240Z,20.71
2022-09-07T18:47:28.660Z,20.70
2022-09-07T18:49:58.335Z,20.68
2022-09-07T18:55:14.233Z,20.47
2022-09-07T18:57:41.875Z,20.32
2022-09-07T19:00:11.935Z,20.28
2022-09-07T19:02:39.600Z,20.22
2022-09-07T19:07:56.915Z,19.93
2022-09-07T19:10:24.641Z,19.83
2022-09-07T19:12:52.266Z,19.73
2022-09-07T19:15:20.407Z,19.70
2022-09-07T19:17:48.057Z,19.74
2022-09-07T19:20:17.325Z,19.57
2022-09-07T19:22:44.974Z,19.76
2022-09-07T19:25:12.676Z,19.67
2022-09-07T19:27:40.388Z,19.60
2022-09-07T19:30:09.181Z,19.52
2022-09-07T19:32:36.931Z,19.42
2022-09-07T19:35:04.901Z,19.38
2022-09-07T19:37:33.920Z,19.36
2022-09-07T19:40:01.709Z,19.30
2022-09-07T19:42:29.543Z,19.23
2022-09-07T19:44:57.270Z,19.14
2022-09-07T19:47:24.963Z,19.08
2022-09-07T19:49:52.735Z,19.05
2022-09-07T19:52:20.551Z,18.97
2022-09-07T19:54:49.677Z,18.97
2022-09-07T19:57:17.324Z,18.94
2022-09-07T19:59:45.536Z,18.87
2022-09-07T20:02:13.290Z,18.83
2022-09-07T20:04:59.676Z,18.85
2022-09-07T20:07:47.734Z,18.96
2022-09-07T20:10:37.250Z,18.99
2022-09-07T20:13:25.141Z,18.98
2022-09-07T20:16:15.532Z,18.74
2022-09-07T20:19:03.479Z,19.14
2022-09-07T20:21:55.493Z,19.23
2022-09-07T20:24:43.685Z,19.32
2022-09-07T20:27:35.720Z,19.55
2022-09-07T20:30:24.756Z,19.72
2022-09-07T20:33:12.679Z,19.89
2022-09-07T20:36:04.242Z,19.93
2022-09-07T20:38:53.916Z,19.99
2022-09-07T20:41:41.775Z,19.99
2022-09-07T20:44:31.112Z,19.96
2022-09-07T20:47:19.007Z,20.00
2022-09-07T20:50:07.592Z,19.95
2022-09-07T20:52:55.897Z,19.84
2022-09-07T20:55:43.790Z,19.74
2022-09-07T20:58:32.132Z,19.65
2022-09-07T21:01:21.551Z,19.58
2022-09-07T21:04:09.496Z,19.59
2022-09-07T21:06:57.371Z,19.61
2022-09-07T21:09:45.298Z,19.59
2022-09-07T21:12:33.242Z,19.56
2022-09-07T21:15:21.137Z,19.52
2022-09-07T21:18:14.377Z,19.42
2022-09-07T21:21:20.134Z,19.34
2022-09-07T21:24:16.463Z,19.23
2022-09-07T21:27:04.437Z,19.18
2022-09-07T21:29:52.372Z,19.06
2022-09-07T21:32:40.339Z,19.01
2022-09-07T21:35:29.599Z,18.93
2022-09-07T21:38:17.589Z,18.85
2022-09-07T21:41:07.180Z,18.80
2022-09-07T21:43:56.356Z,18.77
2022-09-07T21:46:45.207Z,18.75
2022-09-07T21:49:33.137Z,18.73
2022-09-07T21:52:22.410Z,18.75
2022-09-07T21:55:10.618Z,18.76
2022-09-07T21:57:58.491Z,18.76
2022-09-07T22:00:46.431Z,18.75
2022-09-07T22:03:34.528Z,18.77
2022-09-07T22:06:22.994Z,18.83
2022-09-07T22:09:12.218Z,18.83
2022-09-07T22:12:01.096Z,18.81
2022-09-07T22:14:48.966Z,18.76
2022-09-07T22:17:36.839Z,18.77
2022-09-07T22:20:24.706Z,18.84
2022-09-07T22:23:12.574Z,18.84
2022-09-07T22:26:01.907Z,18.86
2022-09-07T22:28:50.299Z,18.88
2022-09-07T22:31:39.402Z,18.87
2022-09-07T22:34:29.086Z,18.90
2022-09-07T22:37:17.142Z,18.92
2022-09-07T22:40:05.669Z,18.93
2022-09-07T22:42:54.951Z,18.86
2022-09-07T22:45:42.825Z,18.95
2022-09-07T22:48:31.237Z,19.00
2022-09-07T22:51:19.795Z,19.02
2022-09-07T22:54:07.893Z,18.99
2022-09-07T22:56:55.794Z,18.94
2022-09-07T22:59:44.998Z,18.92
2022-09-07T23:02:33.034Z,18.75
2022-09-07T23:05:20.881Z,19.00
2022-09-07T23:08:08.890Z,19.07
2022-09-07T23:11:02.247Z,19.18
2022-09-07T23:13:51.878Z,19.24
2022-09-07T23:16:41.205Z,19.26
2022-09-07T23:19:29.150Z,19.27
2022-09-07T23:22:17.043Z,19.36
2022-09-07T23:25:05.603Z,19.37
2022-09-07T23:27:53.524Z,19.36
2022-09-07T23:30:41.417Z,19.46
2022-09-07T23:33:31.607Z,19.45
2022-09-07T23:36:20.232Z,19.52
2022-09-07T23:39:09.463Z,19.49
2022-09-07T23:41:58.658Z,19.36
2022-09-07T23:44:48.388Z,19.45
2022-09-07T23:47:36.250Z,19.52
2022-09-07T23:50:25.475Z,19.38
2022-09-07T23:53:14.154Z,19.25
2022-09-07T23:56:02.062Z,19.29
2022-09-07T23:58:49.953Z,19.23
